Phoenix, AZ (85068)

9:56 PM MST on July 23, 2016 (GMT -0700)
Arroyo Rojo | | Change Station

Elev 1476 ft 33.68 °N, 112.06 °W | Updated 1 minute ago

Clear
Clear
100.2 °F
Feels Like 102 °F
N
3.0
Wind Variable Wind from WSW
Gusts 8.0 mph

Today
High -- | Low -- °F
--% Chance of Precip.
Yesterday
High -- | Low -- °F
Precip. -- in
Pressure 29.68 in
Visibility 10.0 miles
Clouds Clear
Heat Index 102 °F
Dew Point 62 °F
Humidity 29%
Rainfall 0.00 in
Snow Depth Not available.
5:34 AM 7:34 PM
Waning Gibbous, 79% visible
METAR KDVT 240453Z AUTO 24008KT 10SM CLR 38/14 A2977 RMK AO2 SLP049 T03830139
Pressure 29.68 in
Visibility 10.0 miles
Clouds Clear
Heat Index 102 °F
Dew Point 62 °F
Humidity 29%
Rainfall 0.00 in
Snow Depth Not available.
5:34 AM 7:34 PM
Waning Gibbous, 79% visible
METAR KDVT 240453Z AUTO 24008KT 10SM CLR 38/14 A2977 RMK AO2 SLP049 T03830139

10-Day Weather Forecast

Almanac

Astronomy

Jul. 23, 2016 Rise Set
Actual Time
Civil Twilight
Nautical Twilight
Astronomical Twilight
Moon
Length of Visible Light
Length of Day
Tomorrow will be .
, % of the Moon is Illuminated

Today's Extremes

State Highs State Lows

Community

WunderPhotos

Upload Photos

1,927,030 photos uploaded!

WunderBlog® & News

Nearby

Air Quality

  Air Quality AQ Index Pollutant
Not available.

Snow Depth

Station Depth Elevation

Earthquake Activity

City Distance Mag. Time & Date
Minimum magnitude displayed is 2.5.

Coastal Water Temperatures

Place Temperature

Stations

Nearby Weather Stations

Station Location Temp. Windchill Dew Point Humidity Wind Precip. Elev Updated Type
                   

Watches & Warnings

There are currently no watches in effect.